Time;durP1;ratioP1;P1;durP2;ratioP2;P2;SDS_P1;SDS_P2;PMS_P1;PMS_P2;Temp;Humidity;BMP_temperature;BMP_pressure;BME280_temperature;BME280_humidity;BME280_pressure;Samples;Min_cycle;Max_cycle;Signal;HPM_P1;HPM_P2
2023/10/12 00:02:04;;;;;;;6.63;3.85;;;;;;;21.24;49.83;97138.41;4905984;28;20464;-79
2023/10/12 00:04:43;;;;;;;6.00;4.53;;;;;;;20.93;50.34;97138.59;4909455;28;20774;-78
2023/10/12 00:09:37;;;;;;;7.57;3.65;;;;;;;21.17;49.74;97137.34;4912411;28;20204;-79
2023/10/12 00:12:07;;;;;;;6.75;4.00;;;;;;;21.21;49.29;97133.72;4896909;28;20205;-79
2023/10/12 00:14:33;;;;;;;9.65;4.00;;;;;;;21.23;49.34;97128.94;4895650;28;20195;-79
2023/10/12 00:16:59;;;;;;;7.68;4.13;;;;;;;21.13;49.61;97113.38;4898705;28;20338;-78
2023/10/12 00:19:25;;;;;;;5.28;4.78;;;;;;;21.00;50.06;97130.19;4894879;28;20372;-79
2023/10/12 00:21:58;;;;;;;6.32;3.88;;;;;;;21.08;49.60;97130.19;4927769;28;20203;-79
2023/10/12 00:24:23;;;;;;;7.47;3.90;;;;;;;21.11;49.55;97134.06;4918444;28;20694;-79
2023/10/12 00:26:49;;;;;;;7.45;4.68;;;;;;;21.06;49.50;97129.72;4897248;28;20080;-80
2023/10/12 00:29:15;;;;;;;8.80;4.28;;;;;;;21.01;49.55;97135.19;4908065;28;20171;-79
2023/10/12 00:31:41;;;;;;;7.68;4.03;;;;;;;21.04;49.41;97134.56;4927939;28;20253;-80
2023/10/12 00:34:08;;;;;;;7.85;4.15;;;;;;;21.01;49.76;97127.25;4927478;28;20196;-79
2023/10/12 00:36:37;;;;;;;8.77;3.80;;;;;;;20.76;50.01;97126.94;4909977;28;20283;-79
2023/10/12 00:39:09;;;;;;;8.07;4.10;;;;;;;20.98;49.39;97127.09;4910279;28;20187;-79
2023/10/12 00:41:36;;;;;;;5.45;4.10;;;;;;;20.89;50.27;97125.22;4902363;28;20195;-79
2023/10/12 00:51:54;;;;;;;7.50;4.00;;;;;;;20.90;49.49;97121.47;4917408;28;20176;-78
2023/10/12 00:57:05;;;;;;;7.03;4.38;;;;;;;20.65;50.28;97115.13;4930909;28;20200;-79
2023/10/12 00:59:34;;;;;;;7.70;4.20;;;;;;;20.83;50.13;97117.75;4915424;28;20203;-79
2023/10/12 01:02:09;;;;;;;8.43;4.63;;;;;;;20.93;49.83;97112.13;4927066;28;20281;-79
2023/10/12 01:04:41;;;;;;;5.65;3.83;;;;;;;20.90;49.78;97118.06;4931662;28;20204;-79
2023/10/12 01:07:16;;;;;;;6.57;4.05;;;;;;;20.83;50.46;97112.47;4929276;28;20196;-79
2023/10/12 01:09:45;;;;;;;6.05;3.83;;;;;;;20.71;50.25;97111.22;4898729;28;20351;-78
2023/10/12 01:12:14;;;;;;;7.18;4.22;;;;;;;20.70;49.97;97104.38;4929708;28;20635;-79
2023/10/12 01:14:47;;;;;;;5.28;3.97;;;;;;;20.74;50.29;97112.47;4937738;28;20421;-79
2023/10/12 01:17:35;;;;;;;7.10;4.45;;;;;;;20.70;50.40;97104.38;4893769;28;20159;-79
2023/10/12 01:20:26;;;;;;;6.15;4.35;;;;;;;20.58;50.20;97109.50;4915509;28;20170;-79
2023/10/12 01:22:47;;;;;;;5.90;4.20;;;;;;;20.55;50.39;97112.75;4921798;28;20232;-79
2023/10/12 01:25:20;;;;;;;7.20;4.53;;;;;;;20.57;50.62;97110.56;4905142;28;20114;-79
2023/10/12 01:27:47;;;;;;;8.93;4.50;;;;;;;20.46;50.74;97104.00;4911582;28;20188;-80
2023/10/12 01:30:22;;;;;;;7.13;3.70;;;;;;;20.55;50.63;97107.47;4895223;28;20183;-79
2023/10/12 01:32:54;;;;;;;7.15;4.15;;;;;;;20.44;50.75;97095.63;4917563;28;20191;-79
2023/10/12 01:35:27;;;;;;;6.35;4.32;;;;;;;20.42;50.86;97108.38;4904901;28;20227;-79
2023/10/12 01:38:01;;;;;;;6.25;4.20;;;;;;;20.43;50.86;97110.72;4921701;28;20107;-79
2023/10/12 01:43:15;;;;;;;6.82;4.65;;;;;;;20.31;50.84;97113.97;4926249;28;20259;-80
2023/10/12 01:45:41;;;;;;;5.40;4.32;;;;;;;20.24;51.36;97112.84;4931651;28;20218;-79
2023/10/12 01:48:11;;;;;;;7.80;4.55;;;;;;;20.25;51.12;97107.25;4913645;28;20316;-78
2023/10/12 01:50:40;;;;;;;7.80;4.20;;;;;;;20.23;50.82;97119.25;4908926;28;20190;-79
2023/10/12 01:53:25;;;;;;;6.65;4.25;;;;;;;20.12;51.37;97100.25;4909343;28;20230;-79
2023/10/12 01:55:51;;;;;;;;;;;;;;;20.20;51.94;97115.34;4910826;28;20278;-80
2023/10/12 01:58:23;;;;;;;4.82;3.65;;;;;;;20.11;51.14;97103.97;4927720;28;20145;-79
2023/10/12 02:00:52;;;;;;;5.57;4.00;;;;;;;20.04;51.90;97115.00;4927510;28;20033;-79
2023/10/12 02:03:21;;;;;;;6.57;4.00;;;;;;;20.00;51.56;97112.19;4910639;28;20613;-79
2023/10/12 02:06:01;;;;;;;8.25;4.93;;;;;;;19.93;51.86;97109.22;4889491;28;20307;-79
2023/10/12 02:08:40;;;;;;;6.47;4.15;;;;;;;19.91;52.24;97107.94;4908082;28;20243;-79
2023/10/12 02:13:35;;;;;;;5.28;4.50;;;;;;;19.85;52.22;97117.91;4927055;28;20306;-79
2023/10/12 02:16:05;;;;;;;7.25;5.05;;;;;;;19.87;52.48;97109.66;4924541;28;20633;-79
2023/10/12 02:18:31;;;;;;;8.60;4.03;;;;;;;19.74;52.83;97106.00;4919843;28;20447;-79
2023/10/12 02:23:36;;;;;;;7.30;4.32;;;;;;;19.64;53.13;97104.44;4945954;28;20286;-79
2023/10/12 02:28:53;;;;;;;8.13;4.25;;;;;;;19.69;52.59;97111.41;4922955;28;20181;-79
2023/10/12 02:31:22;;;;;;;6.88;4.05;;;;;;;19.81;52.63;97116.97;4927769;28;20195;-79
2023/10/12 02:33:47;;;;;;;8.00;4.63;;;;;;;19.73;53.12;97112.38;4925787;28;20263;-79
2023/10/12 02:36:13;;;;;;;6.97;4.00;;;;;;;19.69;52.74;97100.84;4925203;28;20162;-79
2023/10/12 02:38:41;;;;;;;7.32;5.07;;;;;;;19.65;52.34;97112.06;4909610;28;20205;-79
2023/10/12 02:41:12;;;;;;;7.13;4.20;;;;;;;19.59;52.94;97110.63;4908673;28;20287;-79
2023/10/12 02:43:40;;;;;;;6.30;4.57;;;;;;;19.59;53.27;97113.25;4905398;28;20657;-79
2023/10/12 02:46:16;;;;;;;7.97;4.70;;;;;;;19.64;53.02;97109.72;4904646;28;20166;-79
2023/10/12 02:48:47;;;;;;;6.32;4.65;;;;;;;19.52;52.69;97112.13;4935670;28;20192;-79
2023/10/12 02:51:14;;;;;;;7.53;4.57;;;;;;;19.52;53.31;97115.56;4907102;28;20182;-79
2023/10/12 02:53:40;;;;;;;6.63;4.38;;;;;;;19.57;53.60;97123.34;4913373;28;20411;-79
2023/10/12 02:56:06;;;;;;;6.78;4.57;;;;;;;19.56;52.90;97127.06;4894084;28;20340;-79
2023/10/12 02:58:32;;;;;;;6.55;4.43;;;;;;;19.48;53.21;97119.88;4924359;28;20202;-79
2023/10/12 03:01:13;;;;;;;5.72;4.47;;;;;;;19.48;53.15;97127.78;4910111;28;20818;-79
2023/10/12 03:03:47;;;;;;;5.03;4.15;;;;;;;19.38;53.43;97115.66;4923457;28;20188;-79
2023/10/12 03:06:21;;;;;;;6.05;4.30;;;;;;;19.50;53.79;97133.56;4922165;28;20297;-79
2023/10/12 03:09:05;;;;;;;7.25;4.68;;;;;;;19.53;53.01;97132.94;4905441;28;20212;-80
2023/10/12 03:11:31;;;;;;;8.18;4.30;;;;;;;19.58;53.46;97142.59;4919489;28;20354;-79
2023/10/12 03:14:00;;;;;;;6.45;4.28;;;;;;;19.55;53.20;97146.66;4895539;28;20356;-79
2023/10/12 03:16:33;;;;;;;6.38;4.15;;;;;;;19.55;53.06;97146.66;4910076;28;20875;-80
2023/10/12 03:19:00;;;;;;;8.07;4.55;;;;;;;19.60;53.14;97154.44;4925120;28;20807;-80
2023/10/12 03:21:33;;;;;;;5.90;4.45;;;;;;;19.62;52.95;97157.56;4897840;28;20508;-79
2023/10/12 03:24:02;;;;;;;6.32;4.47;;;;;;;19.52;53.39;97157.00;4911832;28;20284;-79
2023/10/12 03:26:27;;;;;;;6.38;4.10;;;;;;;19.53;54.02;97158.59;4898210;28;20363;-79
2023/10/12 03:34:16;;;;;;;5.97;4.43;;;;;;;19.52;53.91;97155.19;4910523;28;20221;-80
2023/10/12 03:36:47;;;;;;;6.65;4.15;;;;;;;19.42;53.34;97152.78;4908794;28;20232;-79
2023/10/12 03:39:24;;;;;;;6.70;4.63;;;;;;;19.51;53.00;97150.19;4910471;28;20291;-79
2023/10/12 03:52:19;;;;;;;6.63;4.35;;;;;;;19.48;53.67;97146.28;4918747;28;20214;-80
2023/10/12 03:57:38;;;;;;;6.05;4.18;;;;;;;19.48;53.99;97153.44;4924835;28;20192;-79
2023/10/12 04:05:16;;;;;;;5.20;4.30;;;;;;;19.43;54.21;97159.59;4922506;28;20387;-79
2023/10/12 04:18:32;;;;;;;6.57;4.20;;;;;;;19.40;54.12;97154.97;4920485;28;20121;-78
2023/10/12 04:21:03;;;;;;;6.90;4.68;;;;;;;19.34;54.72;97146.34;4915400;28;20201;-79
2023/10/12 04:28:39;;;;;;;6.70;5.05;;;;;;;19.27;54.64;97140.72;4907783;28;20270;-79
2023/10/12 04:33:43;;;;;;;7.72;4.60;;;;;;;19.21;54.76;97153.28;4905626;28;20268;-79
2023/10/12 04:43:53;;;;;;;6.38;5.00;;;;;;;19.12;54.35;97141.09;4923464;28;20221;-80
2023/10/12 04:46:38;;;;;;;7.35;4.80;;;;;;;19.10;55.02;97133.47;4908785;28;20180;-79
2023/10/12 04:49:53;;;;;;;6.37;5.00;;;;;;;19.14;55.34;97142.38;4921393;28;20217;-79
2023/10/12 04:57:26;;;;;;;7.95;5.28;;;;;;;19.17;55.28;97138.34;4880103;28;20250;-79
2023/10/12 05:00:10;;;;;;;7.28;4.85;;;;;;;19.27;55.38;97148.66;4885549;28;20653;-79
2023/10/12 05:07:57;;;;;;;6.30;4.85;;;;;;;19.50;54.79;97157.34;4854627;28;20167;-80
2023/10/12 05:10:41;;;;;;;6.60;5.07;;;;;;;19.50;54.86;97149.41;4839016;28;20694;-79
2023/10/12 05:13:10;;;;;;;6.83;4.53;;;;;;;19.49;54.16;97139.94;4883129;28;20220;-79
2023/10/12 05:15:46;;;;;;;7.10;5.20;;;;;;;19.57;54.24;97148.97;4839207;28;20297;-79
2023/10/12 05:18:13;;;;;;;6.57;4.85;;;;;;;19.59;54.16;97141.53;4869397;28;20704;-79
2023/10/12 05:20:41;;;;;;;7.10;4.47;;;;;;;19.53;54.51;97143.50;4865993;28;20301;-79
2023/10/12 05:23:08;;;;;;;6.07;4.50;;;;;;;19.60;54.18;97137.78;4874593;28;20116;-78
2023/10/12 05:25:48;;;;;;;7.43;4.60;;;;;;;19.57;54.07;97152.41;4875062;28;20310;-78
2023/10/12 05:28:15;;;;;;;7.72;4.70;;;;;;;19.59;54.12;97155.50;4937380;28;20248;-79
2023/10/12 05:30:50;;;;;;;6.40;4.95;;;;;;;19.58;54.07;97171.66;4924749;28;20306;-79
2023/10/12 05:36:09;;;;;;;8.30;4.38;;;;;;;19.66;53.80;97170.94;4929355;28;20177;-78
2023/10/12 05:38:50;;;;;;;7.85;5.10;;;;;;;19.56;54.58;97168.56;4910311;28;20666;-78
2023/10/12 05:41:34;;;;;;;7.53;4.63;;;;;;;19.58;53.94;97156.59;4911235;28;20258;-78
2023/10/12 05:44:08;;;;;;;9.77;4.60;;;;;;;19.58;54.41;97150.53;4919944;28;20145;-78
2023/10/12 05:46:37;;;;;;;10.75;4.90;;;;;;;19.45;54.28;97139.75;4927335;28;20296;-78
2023/10/12 05:49:12;;;;;;;9.80;5.20;;;;;;;19.54;54.63;97129.22;4925897;28;20243;-78
2023/10/12 05:51:38;;;;;;;;;;;;;;;19.81;53.44;97143.38;4912100;28;20204;-79
2023/10/12 05:54:06;;;;;;;7.25;4.95;;;;;;;19.65;54.21;97141.09;4955294;28;20158;-78
2023/10/12 05:56:34;;;;;;;7.07;5.15;;;;;;;19.75;53.45;97140.06;4916614;28;20329;-78
2023/10/12 05:59:00;;;;;;;4.88;4.20;;;;;;;19.71;54.28;97154.94;4888967;28;20623;-78
2023/10/12 06:01:32;;;;;;;7.78;4.70;;;;;;;19.76;54.26;97167.28;4909464;28;20867;-79
2023/10/12 06:04:05;;;;;;;7.28;4.70;;;;;;;19.80;53.83;97170.88;4938873;28;20727;-78
2023/10/12 06:06:35;;;;;;;7.15;4.85;;;;;;;19.80;53.97;97186.72;4936317;28;20575;-79
2023/10/12 06:09:01;;;;;;;7.15;4.78;;;;;;;19.85;53.45;97189.22;4926390;28;20246;-79
2023/10/12 06:11:29;;;;;;;7.25;5.40;;;;;;;19.94;53.14;97192.69;4925077;28;20236;-79
2023/10/12 06:13:57;;;;;;;7.85;4.90;;;;;;;19.87;53.71;97191.56;4925657;28;20219;-79
2023/10/12 06:16:25;;;;;;;6.90;4.63;;;;;;;19.84;54.09;97198.22;4915890;28;20348;-78
2023/10/12 06:18:53;;;;;;;6.03;4.82;;;;;;;19.92;53.99;97202.78;4893529;28;20166;-79
2023/10/12 06:21:19;;;;;;;8.32;4.93;;;;;;;19.96;53.66;97202.94;4918794;28;20677;-79
2023/10/12 06:23:49;;;;;;;7.15;5.03;;;;;;;19.99;53.83;97208.41;4920783;28;20165;-79
2023/10/12 06:26:44;;;;;;;8.50;4.60;;;;;;;20.00;53.96;97204.69;4935825;28;20616;-79
2023/10/12 06:29:07;;;;;;;9.23;4.75;;;;;;;20.04;53.76;97209.38;4910410;28;20729;-79
2023/10/12 06:31:33;;;;;;;9.02;4.93;;;;;;;19.97;53.69;97213.22;4923029;28;20240;-80
2023/10/12 06:34:02;;;;;;;9.38;4.40;;;;;;;20.09;53.48;97220.56;4893414;28;20257;-79
2023/10/12 06:36:37;;;;;;;6.80;5.47;;;;;;;20.12;53.68;97211.28;4919584;28;20221;-79
2023/10/12 06:44:22;;;;;;;7.50;5.03;;;;;;;20.23;53.34;97199.31;4943309;28;20246;-80
2023/10/12 06:46:53;;;;;;;9.82;5.60;;;;;;;20.37;53.42;97202.66;4920510;28;20803;-80
2023/10/12 06:49:22;;;;;;;8.68;5.53;;;;;;;20.28;53.16;97204.47;4892733;28;20247;-80
2023/10/12 06:52:00;;;;;;;5.78;4.78;;;;;;;20.38;53.49;97203.41;4918191;28;20143;-80
2023/10/12 07:02:27;;;;;;;8.32;5.53;;;;;;;20.56;52.93;97230.69;4920746;28;20276;-80
2023/10/12 07:04:54;;;;;;;7.97;5.43;;;;;;;20.54;53.42;97232.84;4929835;28;20516;-81
2023/10/12 07:07:27;;;;;;;9.48;5.15;;;;;;;20.60;53.08;97234.28;4906985;28;20225;-80
2023/10/12 07:12:43;;;;;;;6.80;5.60;;;;;;;20.53;54.09;97236.59;4910791;28;20538;-81
2023/10/12 07:15:12;;;;;;;7.43;5.23;;;;;;;20.71;53.31;97232.16;4939550;28;20672;-80
2023/10/12 07:17:48;;;;;;;8.55;5.82;;;;;;;20.65;52.99;97228.88;4920506;28;20579;-80
2023/10/12 07:20:25;;;;;;;7.28;5.40;;;;;;;20.67;53.37;97218.75;4921496;28;20655;-80
2023/10/12 07:22:51;;;;;;;8.23;5.47;;;;;;;20.68;53.52;97217.69;4923500;28;20204;-80
2023/10/12 07:25:22;;;;;;;9.38;5.95;;;;;;;20.68;53.43;97230.91;4905996;28;20681;-80
2023/10/12 07:28:10;;;;;;;8.73;5.50;;;;;;;20.74;53.79;97223.59;4924154;28;20313;-80
2023/10/12 07:30:43;;;;;;;9.05;5.15;;;;;;;20.79;52.83;97228.75;4916191;28;20376;-80
2023/10/12 07:33:08;;;;;;;9.20;5.70;;;;;;;20.79;53.32;97220.03;4908074;28;20288;-80
2023/10/12 07:35:38;;;;;;;8.80;5.82;;;;;;;20.89;53.48;97211.78;4914069;28;20196;-80
2023/10/12 07:40:56;;;;;;;8.35;5.70;;;;;;;20.92;53.50;97221.75;4915088;28;20255;-80
2023/10/12 07:43:23;;;;;;;10.98;6.18;;;;;;;20.92;53.12;97219.09;4907694;28;20173;-80
2023/10/12 07:45:49;;;;;;;8.98;6.07;;;;;;;20.90;53.17;97218.63;4925385;28;20626;-80
2023/10/12 07:48:29;;;;;;;8.63;6.07;;;;;;;20.99;53.00;97227.38;4901574;28;20181;-80
2023/10/12 07:50:56;;;;;;;9.57;6.65;;;;;;;21.02;52.97;97220.66;4923859;28;20316;-80
2023/10/12 07:53:24;;;;;;;7.32;5.63;;;;;;;21.01;52.99;97214.59;4921445;28;20275;-80
2023/10/12 07:55:55;;;;;;;7.78;6.13;;;;;;;21.05;52.71;97220.81;4902862;28;20162;-80
2023/10/12 07:58:21;;;;;;;8.80;5.90;;;;;;;21.05;53.66;97220.03;4936661;28;20663;-80
2023/10/12 08:00:57;;;;;;;9.50;6.07;;;;;;;21.17;53.44;97241.38;4912680;28;20196;-80
2023/10/12 08:03:25;;;;;;;9.32;6.07;;;;;;;21.13;53.54;97243.09;4908628;28;20212;-81
2023/10/12 08:05:56;;;;;;;8.43;6.45;;;;;;;21.28;52.77;97255.88;4889468;28;20276;-81
2023/10/12 08:08:36;;;;;;;8.93;6.63;;;;;;;21.30;53.38;97266.94;4891951;28;20216;-81
2023/10/12 08:11:09;;;;;;;8.48;6.38;;;;;;;21.46;51.95;97266.47;4902942;28;20247;-81
2023/10/12 08:13:39;;;;;;;9.07;6.30;;;;;;;21.43;52.55;97267.06;4920185;28;20689;-81
2023/10/12 08:16:13;;;;;;;9.23;6.07;;;;;;;21.55;53.12;97267.25;4918917;28;20612;-81
2023/10/12 08:21:31;;;;;;;9.57;7.20;;;;;;;21.54;54.14;97283.44;4923654;28;20662;-80
2023/10/12 08:24:09;;;;;;;;;;;;;;;21.74;52.75;97272.22;4910383;28;20205;-80
2023/10/12 08:32:03;;;;;;;9.05;6.78;;;;;;;22.01;52.08;97268.41;4931989;28;20190;-80
2023/10/12 08:39:37;;;;;;;8.27;7.22;;;;;;;22.22;51.44;97284.41;4948306;28;20080;-81
2023/10/12 08:42:55;;;;;;;8.93;6.38;;;;;;;22.28;51.45;97281.59;4921994;28;20209;-80
2023/10/12 08:44:54;;;;;;;10.35;6.93;;;;;;;22.22;52.53;97281.75;4906811;28;20315;-80
2023/10/12 08:47:44;;;;;;;14.48;6.85;;;;;;;22.19;51.97;97284.25;4926948;28;20209;-81
2023/10/12 08:52:50;;;;;;;9.98;7.05;;;;;;;22.38;51.65;97284.69;4907902;28;20197;-80
2023/10/12 08:55:19;;;;;;;9.68;7.70;;;;;;;22.47;51.02;97292.63;4915534;28;20249;-79
2023/10/12 08:58:01;;;;;;;7.45;6.50;;;;;;;22.48;51.49;97288.84;4911105;28;20724;-79
2023/10/12 09:03:14;;;;;;;8.55;6.95;;;;;;;22.49;51.69;97285.13;4910878;28;20694;-80
2023/10/12 09:05:40;;;;;;;10.05;7.07;;;;;;;22.42;51.78;97284.84;4908749;28;20260;-79
2023/10/12 09:13:33;;;;;;;8.55;6.30;;;;;;;22.64;51.94;97297.06;4907768;28;20103;-79
2023/10/12 09:16:00;;;;;;;8.27;6.10;;;;;;;22.68;50.79;97281.28;4919657;28;20319;-79
2023/10/12 09:18:30;;;;;;;10.25;7.03;;;;;;;22.76;50.85;97289.19;4908889;28;20289;-80
2023/10/12 09:23:33;;;;;;;10.48;6.20;;;;;;;22.78;50.91;97280.91;4934096;28;20256;-79
2023/10/12 09:36:38;;;;;;;9.07;6.32;;;;;;;22.75;50.73;97308.88;4928315;28;20761;-80
2023/10/12 09:39:11;;;;;;;9.07;7.05;;;;;;;22.85;51.00;97302.41;4914089;28;20213;-79
2023/10/12 09:41:41;;;;;;;8.50;6.53;;;;;;;22.88;50.59;97301.00;4924618;28;20099;-79
2023/10/12 09:44:11;;;;;;;8.38;6.68;;;;;;;22.75;51.39;97300.91;4907782;28;20678;-79
2023/10/12 09:46:37;;;;;;;11.30;7.20;;;;;;;22.85;50.94;97310.38;4904129;28;20748;-80
2023/10/12 09:49:21;;;;;;;10.55;6.47;;;;;;;22.78;51.75;97307.47;4936899;28;20725;-79
2023/10/12 09:51:49;;;;;;;7.10;6.07;;;;;;;22.84;51.61;97316.00;4945608;28;20187;-80
2023/10/12 09:54:27;;;;;;;10.10;7.18;;;;;;;22.85;50.88;97333.50;4917878;28;20778;-79
2023/10/12 09:56:57;;;;;;;9.40;6.88;;;;;;;22.77;50.69;97329.78;4912524;28;20201;-79
2023/10/12 09:59:29;;;;;;;11.65;7.25;;;;;;;22.79;50.70;97332.88;4928546;28;20191;-79
2023/10/12 10:02:10;;;;;;;11.25;6.45;;;;;;;22.61;51.00;97334.84;4919212;28;20273;-79
2023/10/12 10:04:40;;;;;;;8.35;6.20;;;;;;;22.79;50.55;97340.84;4924149;28;20196;-79
2023/10/12 10:07:15;;;;;;;10.30;7.13;;;;;;;22.72;51.21;97340.59;4916199;28;20263;-79
2023/10/12 10:09:46;;;;;;;8.85;6.03;;;;;;;22.52;50.87;97331.47;4935828;28;20267;-80
2023/10/12 10:12:15;;;;;;;10.02;6.28;;;;;;;22.72;50.03;97345.88;4908896;28;20248;-80
2023/10/12 10:14:44;;;;;;;8.23;6.50;;;;;;;22.70;50.73;97348.09;4907153;28;20733;-79
2023/10/12 10:17:14;;;;;;;9.57;6.18;;;;;;;22.69;49.89;97346.53;4915490;28;20196;-80
2023/10/12 10:19:39;;;;;;;7.70;5.90;;;;;;;22.80;49.58;97339.78;4890935;28;20273;-79
2023/10/12 10:22:05;;;;;;;8.10;6.75;;;;;;;22.71;50.66;97325.78;4910734;28;20331;-79
2023/10/12 10:24:36;;;;;;;9.48;5.65;;;;;;;22.78;51.28;97342.75;4908506;28;20585;-79
2023/10/12 10:27:15;;;;;;;8.73;6.82;;;;;;;22.83;50.93;97357.72;4913626;28;20225;-80
2023/10/12 10:29:53;;;;;;;6.97;5.90;;;;;;;22.78;50.33;97373.81;4908974;28;20215;-79
2023/10/12 10:32:37;;;;;;;8.65;6.32;;;;;;;22.77;49.88;97353.69;4922401;28;20289;-79
2023/10/12 10:35:08;;;;;;;11.40;6.88;;;;;;;22.63;50.04;97349.34;4927781;28;20297;-80
2023/10/12 10:37:39;;;;;;;9.82;6.05;;;;;;;22.69;50.51;97342.00;4905859;28;20748;-80
2023/10/12 10:40:08;;;;;;;8.27;6.30;;;;;;;22.57;50.00;97352.53;4903897;28;20197;-79
2023/10/12 10:42:36;;;;;;;11.00;6.78;;;;;;;22.51;51.04;97351.91;4912265;28;20422;-79
2023/10/12 10:45:12;;;;;;;10.20;6.72;;;;;;;22.64;51.06;97352.81;4910948;28;20260;-79
2023/10/12 10:47:40;;;;;;;7.97;6.05;;;;;;;22.55;51.00;97341.44;4921355;28;20284;-79
2023/10/12 10:50:15;;;;;;;8.55;6.55;;;;;;;22.46;51.02;97328.19;4917482;28;20216;-80
2023/10/12 10:52:44;;;;;;;9.68;6.35;;;;;;;22.47;51.86;97313.06;4905357;28;20691;-79
2023/10/12 10:55:11;;;;;;;9.95;7.07;;;;;;;22.43;52.26;97297.00;4923423;28;20696;-79
2023/10/12 10:57:39;;;;;;;10.27;6.85;;;;;;;22.49;52.71;97306.34;4895757;28;20247;-79
2023/10/12 11:00:15;;;;;;;9.85;6.75;;;;;;;22.51;52.39;97327.25;4906208;28;20217;-79
2023/10/12 11:02:41;;;;;;;9.20;6.30;;;;;;;22.40;52.19;97318.88;4925671;28;20551;-79
2023/10/12 11:05:10;;;;;;;8.63;6.28;;;;;;;22.30;52.48;97312.03;4940785;28;20279;-79
2023/10/12 11:07:37;;;;;;;10.05;6.30;;;;;;;22.31;52.87;97310.94;4877292;28;20196;-79
2023/10/12 11:10:14;;;;;;;9.00;7.00;;;;;;;22.28;53.24;97316.88;4927766;28;20215;-79
2023/10/12 11:12:39;;;;;;;8.88;6.90;;;;;;;22.23;53.56;97315.13;4900726;28;20168;-79
2023/10/12 11:15:19;;;;;;;9.52;6.85;;;;;;;22.05;54.00;97298.50;4907030;28;20228;-78
2023/10/12 11:17:57;;;;;;;9.23;6.47;;;;;;;22.08;53.24;97289.91;4917731;28;20266;-80
2023/10/12 11:20:27;;;;;;;10.10;6.55;;;;;;;22.10;52.57;97288.81;4910964;28;20135;-79
2023/10/12 11:22:53;;;;;;;10.50;6.20;;;;;;;22.14;53.09;97295.03;4939819;28;20219;-79
2023/10/12 11:25:20;;;;;;;9.00;6.00;;;;;;;22.21;52.72;97290.06;4919405;28;20177;-79
2023/10/12 11:27:45;;;;;;;8.15;6.15;;;;;;;22.19;52.50;97282.41;4917727;28;20285;-79
2023/10/12 11:30:26;;;;;;;7.78;6.10;;;;;;;22.24;53.63;97266.31;4927594;28;20077;-79
2023/10/12 11:32:58;;;;;;;9.32;6.65;;;;;;;22.15;53.53;97259.47;4904849;28;20225;-80
2023/10/12 11:35:34;;;;;;;9.98;5.97;;;;;;;22.35;52.94;97263.34;4915486;28;20293;-80
2023/10/12 11:38:00;;;;;;;7.30;5.82;;;;;;;22.24;54.29;97255.72;4923695;28;20704;-79
2023/10/12 11:40:30;;;;;;;10.02;6.32;;;;;;;22.28;54.38;97255.06;4905129;28;20374;-79
2023/10/12 11:42:56;;;;;;;9.95;5.75;;;;;;;22.22;53.73;97255.22;4907009;28;20363;-79
2023/10/12 11:45:22;;;;;;;7.72;5.60;;;;;;;22.19;53.57;97241.81;4905683;28;20449;-79
2023/10/12 11:47:49;;;;;;;10.63;6.40;;;;;;;22.18;54.22;97245.59;4881020;28;20218;-79
2023/10/12 11:50:15;;;;;;;8.38;6.35;;;;;;;22.19;54.55;97249.78;4885450;28;20353;-80
2023/10/12 11:52:40;;;;;;;9.45;6.70;;;;;;;22.12;54.21;97254.81;4900797;28;20308;-79
2023/10/12 11:55:07;;;;;;;10.90;6.55;;;;;;;22.15;54.65;97251.53;4902648;28;20743;-79
2023/10/12 11:57:37;;;;;;;8.25;6.53;;;;;;;22.01;55.16;97239.25;4911911;28;20186;-78
2023/10/12 12:00:14;;;;;;;9.63;6.38;;;;;;;22.07;55.24;97243.28;4909811;28;20174;-79
2023/10/12 12:02:41;;;;;;;8.13;6.45;;;;;;;22.01;55.72;97233.94;4909134;28;20168;-79
2023/10/12 12:05:11;;;;;;;10.38;7.10;;;;;;;22.06;54.75;97240.94;4906298;28;20767;-79
2023/10/12 12:07:40;;;;;;;8.43;6.63;;;;;;;22.02;55.12;97224.91;4928770;28;20189;-79
2023/10/12 12:10:07;;;;;;;9.00;6.53;;;;;;;22.02;54.66;97216.16;4908182;28;20633;-79
2023/10/12 12:12:38;;;;;;;9.02;5.85;;;;;;;22.03;55.14;97218.47;4910734;28;20187;-79
2023/10/12 12:15:04;;;;;;;12.10;6.65;;;;;;;22.03;55.30;97202.56;4932344;28;20177;-80
2023/10/12 12:17:30;;;;;;;11.00;6.40;;;;;;;22.03;55.00;97212.41;4930752;28;20200;-80
2023/10/12 12:19:56;;;;;;;8.48;6.15;;;;;;;22.03;56.08;97204.47;4928357;28;20223;-80
2023/10/12 12:22:24;;;;;;;12.27;7.13;;;;;;;22.11;56.30;97193.03;4930882;28;20195;-79
2023/10/12 12:24:50;;;;;;;13.10;7.15;;;;;;;22.09;55.44;97179.34;4923993;28;20230;-79
2023/10/12 12:30:00;;;;;;;10.27;6.93;;;;;;;22.21;55.11;97179.44;4951369;28;20186;-78
2023/10/12 12:32:27;;;;;;;8.80;6.63;;;;;;;22.29;54.38;97172.53;4908757;28;20324;-79
2023/10/12 12:34:54;;;;;;;9.13;6.38;;;;;;;22.23;54.52;97179.09;4897674;28;20647;-80
2023/10/12 12:37:20;;;;;;;11.75;6.70;;;;;;;22.13;55.22;97184.78;4893658;28;20507;-80
2023/10/12 12:40:00;;;;;;;12.50;7.65;;;;;;;21.98;56.12;97191.38;4926979;28;20275;-80
2023/10/12 12:42:26;;;;;;;8.90;6.47;;;;;;;22.01;56.09;97186.22;4897036;28;20774;-80
2023/10/12 12:44:52;;;;;;;10.45;6.75;;;;;;;21.96;56.90;97175.03;4926809;28;20272;-81
2023/10/12 12:47:18;;;;;;;11.10;7.18;;;;;;;21.80;57.53;97175.53;4891000;28;20340;-80
2023/10/12 12:49:43;;;;;;;10.88;6.85;;;;;;;21.79;57.05;97189.88;4898699;28;20287;-81
2023/10/12 12:52:09;;;;;;;9.57;6.93;;;;;;;21.74;58.33;97181.34;4911970;28;20271;-81
2023/10/12 12:54:35;;;;;;;10.57;6.50;;;;;;;21.72;59.11;97167.63;4894758;28;20208;-80
2023/10/12 12:57:00;;;;;;;9.27;6.47;;;;;;;21.75;58.07;97167.00;4894822;28;20284;-80
2023/10/12 12:59:27;;;;;;;12.48;7.18;;;;;;;21.72;59.20;97176.34;4909662;28;20342;-80
2023/10/12 13:01:53;;;;;;;9.00;6.38;;;;;;;21.75;58.47;97169.66;4919648;28;20247;-80
2023/10/12 13:04:19;;;;;;;9.63;7.70;;;;;;;21.82;58.09;97165.41;4923296;28;20291;-81
2023/10/12 13:06:44;;;;;;;7.93;6.80;;;;;;;21.74;58.08;97160.91;4906805;28;20220;-81
2023/10/12 13:09:28;;;;;;;9.02;6.00;;;;;;;21.93;57.17;97165.03;4907722;28;20283;-81
2023/10/12 13:11:54;;;;;;;8.00;6.40;;;;;;;21.99;57.66;97171.75;4927783;28;20604;-81
2023/10/12 13:14:19;;;;;;;8.45;6.30;;;;;;;22.11;57.54;97157.81;4920401;28;20299;-80
2023/10/12 13:16:44;;;;;;;9.57;6.88;;;;;;;22.16;58.06;97161.03;4896036;28;20271;-80
2023/10/12 13:19:11;;;;;;;9.90;6.82;;;;;;;22.23;57.44;97161.31;4904531;28;20612;-81
2023/10/12 13:21:41;;;;;;;9.02;6.80;;;;;;;22.38;57.17;97159.22;4910279;28;20072;-80
2023/10/12 13:24:08;;;;;;;8.85;6.60;;;;;;;22.40;57.54;97143.78;4906573;28;20172;-81
2023/10/12 13:26:34;;;;;;;9.23;6.20;;;;;;;22.60;55.86;97148.31;4923510;28;20309;-80
2023/10/12 13:29:01;;;;;;;7.38;6.43;;;;;;;22.61;56.71;97157.81;4922216;28;20650;-80
2023/10/12 13:31:28;;;;;;;7.78;6.68;;;;;;;22.73;56.81;97156.34;4894520;28;20660;-80
2023/10/12 13:33:54;;;;;;;9.43;6.47;;;;;;;22.79;54.64;97163.00;4906049;28;20209;-80
2023/10/12 13:36:20;;;;;;;10.75;7.03;;;;;;;22.82;55.17;97159.69;4908338;28;20201;-80
2023/10/12 13:38:46;;;;;;;7.60;6.43;;;;;;;22.74;55.71;97148.06;4886917;28;20217;-80
2023/10/12 13:41:12;;;;;;;7.55;6.55;;;;;;;22.76;55.45;97155.69;4922038;28;20325;-80
2023/10/12 13:43:37;;;;;;;10.70;6.72;;;;;;;22.70;55.48;97159.63;4881630;28;20365;-80
2023/10/12 13:46:10;;;;;;;10.15;6.82;;;;;;;22.69;55.29;97150.91;4926586;28;20285;-79
2023/10/12 13:48:37;;;;;;;7.53;6.05;;;;;;;22.63;55.47;97174.19;4917607;28;20519;-79
2023/10/12 13:51:37;;;;;;;11.52;7.10;;;;;;;22.59;54.80;97188.44;4906150;28;20281;-79
2023/10/12 13:53:55;;;;;;;9.82;6.40;;;;;;;22.53;55.28;97184.41;4913994;28;20323;-79
2023/10/12 13:56:28;;;;;;;11.65;7.07;;;;;;;22.46;56.85;97182.28;4923674;28;21103;-79
2023/10/12 13:58:57;;;;;;;8.30;6.50;;;;;;;22.33;56.71;97165.50;4926557;28;20184;-79
2023/10/12 14:01:23;;;;;;;8.82;6.95;;;;;;;22.36;57.15;97175.47;4920110;28;20220;-79
2023/10/12 14:03:55;;;;;;;8.05;6.20;;;;;;;22.39;57.61;97174.03;4924243;28;20204;-79
2023/10/12 14:06:24;;;;;;;7.97;6.10;;;;;;;22.51;57.21;97176.00;4910177;28;20300;-79
2023/10/12 14:08:54;;;;;;;10.63;6.43;;;;;;;22.53;57.11;97161.31;4911714;28;20266;-80
2023/10/12 14:11:19;;;;;;;7.97;6.40;;;;;;;22.43;56.81;97164.34;4917292;28;20205;-79
2023/10/12 14:13:46;;;;;;;9.90;6.90;;;;;;;22.50;56.79;97156.66;4902149;28;20186;-80